Little's Farm

CA-0442 · 安大略, 加拿大

罗盘
风向 的 风向 190°
风: 5 kt, 2 beaufort

添加一条跑道以查看侧风和逆风信息。

添置 跑道
0 6.000 12.000 18.000 24.000 30.000
BKN 11.000 ft
BKN 24.000 ft
METAR CYYZ 021300Z 19005KT 15SM BKN110 BKN240 01/M02 A3031 RMK AC6CI1 PRESRR SLP273

METAR Little's Farm - CA-0442

Little's Farm是,加拿大中的小机场。 该领域的国际民航组织标志是CA-0442.

这份报告是针对2022年12月2日 08:00, 当地时间在多倫多皮爾遜國際機場进行的。

机场观察

风向为190°,速度为5 kt。

可见度为15 mi。

有碎云在11.000 ft的高度 和 碎云在24.000 ft的高度。 破损或更高的上限为11.000 ft。

温度为1 °C,阵风为-3 °C。 露点为-2 °C,相对湿度为81%。 海平面上的气压为30,31 inHg (QNH)。

白天

今天,太阳从07:34升起,在16:42降落。 这适用于Little's Farm,世界夏令时可能有所不同。 当地时间与世界标准时间之间的时差为-5 小时。 当前,没有夏令时有效。

公司介绍

我们没有关于这个机场的公司信息。

体会

到Vliegles.nl去找飞行课程,跳伞和其他飞行体验。 浏览页面,了解Little's Farm附近所有可用的活动。 你也可以使用搜索功能来寻找你所在地附近的特定飞行课程、跳伞或其他飞行体验。

乌云

11.000 ft BKN 碎云
24.000 ft BKN 碎云

温度 & 天气

温度 1 °C
露点 -2 °C
相对湿度 81%
风寒 -3 °C
Kp-index 2 (0-9)

评论

PRESRR气压迅速上升
SLP273海平面压力为30,34 inHg (30,34 inHg)
AC6CI1

白天

日出
07:33
中午
12:07
日落
16:42 (8:03)

小工具

你想在你的网站上有一个关于Little's Farm的当前航空天气(METAR)的小部件吗?

显示HTML代码

我们和第三方通过cookies跟踪您在我们网站上的互联网行为。如果你继续,我们认为你同意我们的饼干政策